sensor_id;sensor_type;location;lat;lon;timestamp;P1;durP1;ratioP1;P2;durP2;ratioP2
76157;SDS011;64907;51.574;6.502;2024-02-15T00:02:32;31.90;;;19.73;;
76157;SDS011;64907;51.574;6.502;2024-02-15T00:04:57;31.20;;;20.00;;
76157;SDS011;64907;51.574;6.502;2024-02-15T00:07:22;24.40;;;17.88;;
76157;SDS011;64907;51.574;6.502;2024-02-15T00:09:48;26.27;;;19.55;;
76157;SDS011;64907;51.574;6.502;2024-02-15T00:12:13;28.50;;;18.20;;
76157;SDS011;64907;51.574;6.502;2024-02-15T00:14:39;29.83;;;19.80;;
76157;SDS011;64907;51.574;6.502;2024-02-15T00:17:05;22.45;;;17.90;;
76157;SDS011;64907;51.574;6.502;2024-02-15T00:19:31;27.85;;;18.15;;
76157;SDS011;64907;51.574;6.502;2024-02-15T00:21:56;27.58;;;17.80;;
76157;SDS011;64907;51.574;6.502;2024-02-15T00:24:22;26.65;;;18.38;;
76157;SDS011;64907;51.574;6.502;2024-02-15T00:29:16;27.25;;;18.38;;
76157;SDS011;64907;51.574;6.502;2024-02-15T00:31:41;25.98;;;18.65;;
76157;SDS011;64907;51.574;6.502;2024-02-15T00:34:06;24.67;;;17.90;;
76157;SDS011;64907;51.574;6.502;2024-02-15T00:36:31;23.75;;;17.00;;
76157;SDS011;64907;51.574;6.502;2024-02-15T00:38:59;24.85;;;16.55;;
76157;SDS011;64907;51.574;6.502;2024-02-15T00:41:25;22.77;;;16.83;;
76157;SDS011;64907;51.574;6.502;2024-02-15T00:43:50;21.88;;;15.95;;
76157;SDS011;64907;51.574;6.502;2024-02-15T00:46:16;28.63;;;14.60;;
76157;SDS011;64907;51.574;6.502;2024-02-15T00:48:42;24.05;;;15.68;;
76157;SDS011;64907;51.574;6.502;2024-02-15T00:51:07;24.35;;;15.90;;
76157;SDS011;64907;51.574;6.502;2024-02-15T00:53:33;21.88;;;15.10;;
76157;SDS011;64907;51.574;6.502;2024-02-15T00:55:59;22.95;;;15.13;;
76157;SDS011;64907;51.574;6.502;2024-02-15T00:58:25;20.98;;;14.57;;
76157;SDS011;64907;51.574;6.502;2024-02-15T01:00:52;18.67;;;14.73;;
76157;SDS011;64907;51.574;6.502;2024-02-15T01:03:17;19.10;;;13.48;;
76157;SDS011;64907;51.574;6.502;2024-02-15T01:05:42;21.70;;;13.70;;
76157;SDS011;64907;51.574;6.502;2024-02-15T01:08:08;19.95;;;13.60;;
76157;SDS011;64907;51.574;6.502;2024-02-15T01:10:34;26.35;;;14.07;;
76157;SDS011;64907;51.574;6.502;2024-02-15T01:15:42;25.80;;;13.43;;
76157;SDS011;64907;51.574;6.502;2024-02-15T01:18:07;22.08;;;13.13;;
76157;SDS011;64907;51.574;6.502;2024-02-15T01:20:33;19.00;;;12.98;;
76157;SDS011;64907;51.574;6.502;2024-02-15T01:23:00;19.77;;;12.82;;
76157;SDS011;64907;51.574;6.502;2024-02-15T01:25:25;20.20;;;11.98;;
76157;SDS011;64907;51.574;6.502;2024-02-15T01:27:59;23.63;;;11.73;;
76157;SDS011;64907;51.574;6.502;2024-02-15T01:30:26;14.55;;;10.35;;
76157;SDS011;64907;51.574;6.502;2024-02-15T01:32:53;18.95;;;11.18;;
76157;SDS011;64907;51.574;6.502;2024-02-15T01:35:22;18.63;;;11.55;;
76157;SDS011;64907;51.574;6.502;2024-02-15T01:37:47;22.83;;;10.98;;
76157;SDS011;64907;51.574;6.502;2024-02-15T01:40:19;24.02;;;12.80;;
76157;SDS011;64907;51.574;6.502;2024-02-15T01:42:45;28.55;;;11.80;;
76157;SDS011;64907;51.574;6.502;2024-02-15T01:45:10;19.15;;;10.85;;
76157;SDS011;64907;51.574;6.502;2024-02-15T01:47:39;20.90;;;10.93;;
76157;SDS011;64907;51.574;6.502;2024-02-15T01:50:05;22.73;;;11.40;;
76157;SDS011;64907;51.574;6.502;2024-02-15T01:52:32;20.35;;;11.05;;
76157;SDS011;64907;51.574;6.502;2024-02-15T01:54:57;23.13;;;11.15;;
76157;SDS011;64907;51.574;6.502;2024-02-15T01:57:22;16.77;;;10.07;;
76157;SDS011;64907;51.574;6.502;2024-02-15T01:59:49;20.27;;;11.32;;
76157;SDS011;64907;51.574;6.502;2024-02-15T02:02:15;16.75;;;11.20;;
76157;SDS011;64907;51.574;6.502;2024-02-15T02:04:41;17.88;;;10.65;;
76157;SDS011;64907;51.574;6.502;2024-02-15T02:07:07;22.10;;;12.48;;
76157;SDS011;64907;51.574;6.502;2024-02-15T02:09:32;20.60;;;11.73;;
76157;SDS011;64907;51.574;6.502;2024-02-15T02:11:58;19.08;;;10.88;;
76157;SDS011;64907;51.574;6.502;2024-02-15T02:14:23;19.27;;;10.75;;
76157;SDS011;64907;51.574;6.502;2024-02-15T02:16:49;21.23;;;11.85;;
76157;SDS011;64907;51.574;6.502;2024-02-15T02:19:14;16.70;;;10.13;;
76157;SDS011;64907;51.574;6.502;2024-02-15T02:21:42;21.88;;;11.27;;
76157;SDS011;64907;51.574;6.502;2024-02-15T02:24:13;15.18;;;10.13;;
76157;SDS011;64907;51.574;6.502;2024-02-15T02:26:39;15.10;;;10.82;;
76157;SDS011;64907;51.574;6.502;2024-02-15T02:29:05;18.20;;;10.93;;
76157;SDS011;64907;51.574;6.502;2024-02-15T02:31:33;22.98;;;11.38;;
76157;SDS011;64907;51.574;6.502;2024-02-15T02:33:59;21.48;;;12.00;;
76157;SDS011;64907;51.574;6.502;2024-02-15T02:36:25;25.48;;;10.38;;
76157;SDS011;64907;51.574;6.502;2024-02-15T02:38:51;18.88;;;10.70;;
76157;SDS011;64907;51.574;6.502;2024-02-15T02:41:17;19.58;;;10.20;;
76157;SDS011;64907;51.574;6.502;2024-02-15T02:43:44;19.58;;;10.13;;
76157;SDS011;64907;51.574;6.502;2024-02-15T02:46:09;22.80;;;9.60;;
76157;SDS011;64907;51.574;6.502;2024-02-15T02:48:35;14.32;;;9.32;;
76157;SDS011;64907;51.574;6.502;2024-02-15T02:51:01;15.60;;;8.82;;
76157;SDS011;64907;51.574;6.502;2024-02-15T02:53:26;18.98;;;8.88;;
76157;SDS011;64907;51.574;6.502;2024-02-15T02:55:51;13.98;;;8.40;;
76157;SDS011;64907;51.574;6.502;2024-02-15T02:58:17;17.80;;;8.63;;
76157;SDS011;64907;51.574;6.502;2024-02-15T03:03:13;15.90;;;9.07;;
76157;SDS011;64907;51.574;6.502;2024-02-15T03:05:38;14.27;;;8.50;;
76157;SDS011;64907;51.574;6.502;2024-02-15T03:10:40;16.15;;;8.13;;
76157;SDS011;64907;51.574;6.502;2024-02-15T03:13:06;9.60;;;7.93;;
76157;SDS011;64907;51.574;6.502;2024-02-15T03:15:32;17.15;;;8.05;;
76157;SDS011;64907;51.574;6.502;2024-02-15T03:17:58;10.50;;;7.60;;
76157;SDS011;64907;51.574;6.502;2024-02-15T03:20:23;13.18;;;7.57;;
76157;SDS011;64907;51.574;6.502;2024-02-15T03:25:18;16.58;;;8.20;;
76157;SDS011;64907;51.574;6.502;2024-02-15T03:27:43;14.02;;;7.18;;
76157;SDS011;64907;51.574;6.502;2024-02-15T03:30:09;12.27;;;7.90;;
76157;SDS011;64907;51.574;6.502;2024-02-15T03:32:43;10.02;;;7.07;;
76157;SDS011;64907;51.574;6.502;2024-02-15T03:35:09;16.08;;;8.20;;
76157;SDS011;64907;51.574;6.502;2024-02-15T03:37:34;16.52;;;7.13;;
76157;SDS011;64907;51.574;6.502;2024-02-15T03:40:02;16.73;;;8.32;;
76157;SDS011;64907;51.574;6.502;2024-02-15T03:42:29;16.92;;;7.10;;
76157;SDS011;64907;51.574;6.502;2024-02-15T03:44:54;13.07;;;6.70;;
76157;SDS011;64907;51.574;6.502;2024-02-15T03:47:20;16.00;;;6.90;;
76157;SDS011;64907;51.574;6.502;2024-02-15T03:49:45;14.88;;;6.85;;
76157;SDS011;64907;51.574;6.502;2024-02-15T03:52:11;13.93;;;6.97;;
76157;SDS011;64907;51.574;6.502;2024-02-15T03:54:36;12.02;;;6.68;;
76157;SDS011;64907;51.574;6.502;2024-02-15T03:57:03;14.18;;;6.20;;
76157;SDS011;64907;51.574;6.502;2024-02-15T03:59:28;8.88;;;6.53;;
76157;SDS011;64907;51.574;6.502;2024-02-15T04:01:54;12.15;;;6.63;;
76157;SDS011;64907;51.574;6.502;2024-02-15T04:04:21;12.80;;;6.30;;
76157;SDS011;64907;51.574;6.502;2024-02-15T04:06:48;18.25;;;6.57;;
76157;SDS011;64907;51.574;6.502;2024-02-15T04:09:13;11.27;;;6.20;;
76157;SDS011;64907;51.574;6.502;2024-02-15T04:11:38;22.92;;;6.28;;
76157;SDS011;64907;51.574;6.502;2024-02-15T04:14:03;11.82;;;5.47;;
76157;SDS011;64907;51.574;6.502;2024-02-15T04:16:29;12.75;;;5.97;;
76157;SDS011;64907;51.574;6.502;2024-02-15T04:18:56;8.73;;;5.70;;
76157;SDS011;64907;51.574;6.502;2024-02-15T04:21:24;11.32;;;5.82;;
76157;SDS011;64907;51.574;6.502;2024-02-15T04:23:49;12.05;;;6.93;;
76157;SDS011;64907;51.574;6.502;2024-02-15T04:26:17;15.13;;;5.90;;
76157;SDS011;64907;51.574;6.502;2024-02-15T04:28:44;11.15;;;5.85;;
76157;SDS011;64907;51.574;6.502;2024-02-15T04:31:12;10.48;;;5.07;;
76157;SDS011;64907;51.574;6.502;2024-02-15T04:33:37;10.05;;;4.80;;
76157;SDS011;64907;51.574;6.502;2024-02-15T04:36:05;10.82;;;5.57;;
76157;SDS011;64907;51.574;6.502;2024-02-15T04:38:31;10.77;;;5.32;;
76157;SDS011;64907;51.574;6.502;2024-02-15T04:40:57;10.18;;;5.60;;
76157;SDS011;64907;51.574;6.502;2024-02-15T04:43:37;9.65;;;4.95;;
76157;SDS011;64907;51.574;6.502;2024-02-15T04:46:05;9.02;;;4.80;;
76157;SDS011;64907;51.574;6.502;2024-02-15T04:48:32;13.30;;;5.28;;
76157;SDS011;64907;51.574;6.502;2024-02-15T04:51:00;12.48;;;5.28;;
76157;SDS011;64907;51.574;6.502;2024-02-15T04:53:26;14.25;;;5.53;;
76157;SDS011;64907;51.574;6.502;2024-02-15T04:55:51;9.20;;;4.97;;
76157;SDS011;64907;51.574;6.502;2024-02-15T04:58:17;12.90;;;4.93;;
76157;SDS011;64907;51.574;6.502;2024-02-15T05:00:43;11.90;;;5.68;;
76157;SDS011;64907;51.574;6.502;2024-02-15T05:05:38;10.80;;;4.70;;
76157;SDS011;64907;51.574;6.502;2024-02-15T05:08:04;10.23;;;4.47;;
76157;SDS011;64907;51.574;6.502;2024-02-15T05:10:29;9.77;;;5.22;;
76157;SDS011;64907;51.574;6.502;2024-02-15T05:12:54;10.73;;;4.95;;
76157;SDS011;64907;51.574;6.502;2024-02-15T05:15:20;6.40;;;4.50;;
76157;SDS011;64907;51.574;6.502;2024-02-15T05:20:42;12.15;;;4.32;;
76157;SDS011;64907;51.574;6.502;2024-02-15T05:23:07;8.23;;;4.32;;
76157;SDS011;64907;51.574;6.502;2024-02-15T05:25:32;6.97;;;4.22;;
76157;SDS011;64907;51.574;6.502;2024-02-15T05:27:59;8.77;;;4.07;;
76157;SDS011;64907;51.574;6.502;2024-02-15T05:30:25;6.68;;;4.18;;
76157;SDS011;64907;51.574;6.502;2024-02-15T05:32:51;11.18;;;4.70;;
76157;SDS011;64907;51.574;6.502;2024-02-15T05:35:17;9.15;;;4.15;;
76157;SDS011;64907;51.574;6.502;2024-02-15T05:37:43;8.43;;;3.78;;
76157;SDS011;64907;51.574;6.502;2024-02-15T05:40:08;8.85;;;3.97;;
76157;SDS011;64907;51.574;6.502;2024-02-15T05:42:40;9.15;;;3.70;;
76157;SDS011;64907;51.574;6.502;2024-02-15T05:48:02;9.60;;;4.05;;
76157;SDS011;64907;51.574;6.502;2024-02-15T05:50:28;8.13;;;3.67;;
76157;SDS011;64907;51.574;6.502;2024-02-15T05:52:56;9.27;;;3.83;;
76157;SDS011;64907;51.574;6.502;2024-02-15T05:55:30;12.15;;;4.13;;
76157;SDS011;64907;51.574;6.502;2024-02-15T05:57:59;8.07;;;3.97;;
76157;SDS011;64907;51.574;6.502;2024-02-15T06:00:33;9.63;;;4.22;;
76157;SDS011;64907;51.574;6.502;2024-02-15T06:02:59;5.68;;;3.50;;
76157;SDS011;64907;51.574;6.502;2024-02-15T06:05:29;8.50;;;3.45;;
76157;SDS011;64907;51.574;6.502;2024-02-15T06:07:55;7.65;;;3.50;;
76157;SDS011;64907;51.574;6.502;2024-02-15T06:10:28;7.43;;;3.97;;
76157;SDS011;64907;51.574;6.502;2024-02-15T06:12:54;6.65;;;3.42;;
76157;SDS011;64907;51.574;6.502;2024-02-15T06:15:19;9.43;;;4.18;;
76157;SDS011;64907;51.574;6.502;2024-02-15T06:17:45;6.20;;;3.50;;
76157;SDS011;64907;51.574;6.502;2024-02-15T06:20:14;7.10;;;3.35;;
76157;SDS011;64907;51.574;6.502;2024-02-15T06:22:42;7.47;;;3.58;;
76157;SDS011;64907;51.574;6.502;2024-02-15T06:25:08;5.57;;;3.55;;
76157;SDS011;64907;51.574;6.502;2024-02-15T06:27:35;6.90;;;3.05;;
76157;SDS011;64907;51.574;6.502;2024-02-15T06:30:10;5.70;;;3.05;;
76157;SDS011;64907;51.574;6.502;2024-02-15T06:32:54;10.90;;;2.97;;
76157;SDS011;64907;51.574;6.502;2024-02-15T06:35:38;6.88;;;2.90;;
76157;SDS011;64907;51.574;6.502;2024-02-15T06:38:23;4.68;;;3.30;;
76157;SDS011;64907;51.574;6.502;2024-02-15T06:43:36;8.07;;;3.40;;
76157;SDS011;64907;51.574;6.502;2024-02-15T06:46:02;8.27;;;3.78;;
76157;SDS011;64907;51.574;6.502;2024-02-15T06:48:29;7.85;;;3.80;;
76157;SDS011;64907;51.574;6.502;2024-02-15T06:53:48;6.82;;;3.20;;
76157;SDS011;64907;51.574;6.502;2024-02-15T06:56:16;11.15;;;4.18;;
76157;SDS011;64907;51.574;6.502;2024-02-15T07:01:21;9.15;;;4.03;;
76157;SDS011;64907;51.574;6.502;2024-02-15T07:06:18;6.68;;;3.42;;
76157;SDS011;64907;51.574;6.502;2024-02-15T07:08:43;7.78;;;3.80;;
76157;SDS011;64907;51.574;6.502;2024-02-15T07:11:08;7.18;;;3.47;;
76157;SDS011;64907;51.574;6.502;2024-02-15T07:13:34;7.13;;;3.45;;
76157;SDS011;64907;51.574;6.502;2024-02-15T07:16:01;7.85;;;3.72;;
76157;SDS011;64907;51.574;6.502;2024-02-15T07:18:26;5.53;;;3.58;;
76157;SDS011;64907;51.574;6.502;2024-02-15T07:26:23;10.18;;;4.25;;
76157;SDS011;64907;51.574;6.502;2024-02-15T07:28:53;8.65;;;3.78;;
76157;SDS011;64907;51.574;6.502;2024-02-15T07:31:19;14.23;;;3.70;;
76157;SDS011;64907;51.574;6.502;2024-02-15T07:34:01;11.68;;;3.80;;
76157;SDS011;64907;51.574;6.502;2024-02-15T07:36:31;6.60;;;3.42;;
76157;SDS011;64907;51.574;6.502;2024-02-15T07:38:57;9.95;;;4.25;;
76157;SDS011;64907;51.574;6.502;2024-02-15T07:41:32;8.48;;;3.50;;
76157;SDS011;64907;51.574;6.502;2024-02-15T07:43:58;7.75;;;4.32;;
76157;SDS011;64907;51.574;6.502;2024-02-15T07:46:23;6.85;;;3.70;;
76157;SDS011;64907;51.574;6.502;2024-02-15T07:48:55;11.38;;;4.15;;
76157;SDS011;64907;51.574;6.502;2024-02-15T07:53:52;5.90;;;3.30;;
76157;SDS011;64907;51.574;6.502;2024-02-15T07:56:18;7.20;;;4.03;;
76157;SDS011;64907;51.574;6.502;2024-02-15T07:58:44;10.45;;;3.72;;
76157;SDS011;64907;51.574;6.502;2024-02-15T08:01:13;9.65;;;4.65;;
76157;SDS011;64907;51.574;6.502;2024-02-15T08:03:38;7.30;;;3.70;;
76157;SDS011;64907;51.574;6.502;2024-02-15T08:06:09;5.90;;;3.42;;
76157;SDS011;64907;51.574;6.502;2024-02-15T08:08:34;8.55;;;3.53;;
76157;SDS011;64907;51.574;6.502;2024-02-15T08:11:01;9.45;;;4.43;;
76157;SDS011;64907;51.574;6.502;2024-02-15T08:13:27;7.60;;;3.78;;
76157;SDS011;64907;51.574;6.502;2024-02-15T08:15:54;7.90;;;3.88;;
76157;SDS011;64907;51.574;6.502;2024-02-15T08:20:56;6.97;;;3.78;;
76157;SDS011;64907;51.574;6.502;2024-02-15T08:25:52;9.48;;;4.32;;
76157;SDS011;64907;51.574;6.502;2024-02-15T08:28:18;7.95;;;4.13;;
76157;SDS011;64907;51.574;6.502;2024-02-15T08:30:58;4.60;;;3.20;;
76157;SDS011;64907;51.574;6.502;2024-02-15T08:33:24;4.40;;;3.20;;
76157;SDS011;64907;51.574;6.502;2024-02-15T08:38:27;5.82;;;3.33;;
76157;SDS011;64907;51.574;6.502;2024-02-15T08:40:52;9.05;;;3.30;;
76157;SDS011;64907;51.574;6.502;2024-02-15T08:43:18;7.25;;;3.67;;
76157;SDS011;64907;51.574;6.502;2024-02-15T08:45:50;9.32;;;4.22;;
76157;SDS011;64907;51.574;6.502;2024-02-15T08:48:15;5.88;;;3.03;;
76157;SDS011;64907;51.574;6.502;2024-02-15T08:50:41;4.95;;;3.00;;
76157;SDS011;64907;51.574;6.502;2024-02-15T08:53:06;5.47;;;3.00;;
76157;SDS011;64907;51.574;6.502;2024-02-15T08:55:32;6.07;;;3.00;;
76157;SDS011;64907;51.574;6.502;2024-02-15T08:58:00;3.97;;;3.33;;
76157;SDS011;64907;51.574;6.502;2024-02-15T09:00:25;6.50;;;3.47;;
76157;SDS011;64907;51.574;6.502;2024-02-15T09:05:28;8.32;;;3.80;;
76157;SDS011;64907;51.574;6.502;2024-02-15T09:07:53;10.55;;;4.45;;
76157;SDS011;64907;51.574;6.502;2024-02-15T09:10:19;9.85;;;4.43;;
76157;SDS011;64907;51.574;6.502;2024-02-15T09:12:47;6.45;;;3.70;;
76157;SDS011;64907;51.574;6.502;2024-02-15T09:15:13;12.15;;;4.45;;
76157;SDS011;64907;51.574;6.502;2024-02-15T09:20:09;11.10;;;4.90;;
76157;SDS011;64907;51.574;6.502;2024-02-15T09:22:43;14.52;;;4.70;;
76157;SDS011;64907;51.574;6.502;2024-02-15T09:25:09;6.07;;;3.95;;
76157;SDS011;64907;51.574;6.502;2024-02-15T09:27:35;9.52;;;4.45;;
76157;SDS011;64907;51.574;6.502;2024-02-15T09:30:01;8.68;;;4.90;;
76157;SDS011;64907;51.574;6.502;2024-02-15T09:32:27;5.85;;;4.68;;
76157;SDS011;64907;51.574;6.502;2024-02-15T09:34:52;9.25;;;4.68;;
76157;SDS011;64907;51.574;6.502;2024-02-15T09:37:17;6.78;;;4.70;;
76157;SDS011;64907;51.574;6.502;2024-02-15T09:39:44;5.50;;;4.50;;
76157;SDS011;64907;51.574;6.502;2024-02-15T09:42:11;12.40;;;4.90;;
76157;SDS011;64907;51.574;6.502;2024-02-15T09:44:36;5.28;;;4.75;;
76157;SDS011;64907;51.574;6.502;2024-02-15T09:47:03;8.25;;;4.70;;
76157;SDS011;64907;51.574;6.502;2024-02-15T09:49:30;9.82;;;4.90;;
76157;SDS011;64907;51.574;6.502;2024-02-15T09:51:59;9.55;;;5.10;;
76157;SDS011;64907;51.574;6.502;2024-02-15T09:54:25;9.05;;;4.80;;
76157;SDS011;64907;51.574;6.502;2024-02-15T09:56:50;13.27;;;5.00;;
76157;SDS011;64907;51.574;6.502;2024-02-15T09:59:16;9.70;;;4.82;;
76157;SDS011;64907;51.574;6.502;2024-02-15T10:01:42;10.05;;;4.60;;
76157;SDS011;64907;51.574;6.502;2024-02-15T10:04:19;7.95;;;4.90;;
76157;SDS011;64907;51.574;6.502;2024-02-15T10:06:44;7.20;;;4.70;;
76157;SDS011;64907;51.574;6.502;2024-02-15T10:14:50;4.60;;;3.80;;
76157;SDS011;64907;51.574;6.502;2024-02-15T10:17:15;6.68;;;4.30;;
76157;SDS011;64907;51.574;6.502;2024-02-15T10:19:43;6.82;;;4.07;;
76157;SDS011;64907;51.574;6.502;2024-02-15T10:22:10;5.80;;;4.40;;
76157;SDS011;64907;51.574;6.502;2024-02-15T10:24:35;8.15;;;4.65;;
76157;SDS011;64907;51.574;6.502;2024-02-15T10:27:02;11.63;;;4.40;;
76157;SDS011;64907;51.574;6.502;2024-02-15T10:29:35;9.75;;;4.78;;
76157;SDS011;64907;51.574;6.502;2024-02-15T10:32:01;9.57;;;4.20;;
76157;SDS011;64907;51.574;6.502;2024-02-15T10:34:27;8.40;;;3.80;;
76157;SDS011;64907;51.574;6.502;2024-02-15T10:36:53;7.03;;;4.68;;
76157;SDS011;64907;51.574;6.502;2024-02-15T10:41:53;6.95;;;3.97;;
76157;SDS011;64907;51.574;6.502;2024-02-15T10:44:23;6.38;;;4.03;;
76157;SDS011;64907;51.574;6.502;2024-02-15T10:46:49;7.88;;;3.72;;
76157;SDS011;64907;51.574;6.502;2024-02-15T10:49:20;8.60;;;4.32;;
76157;SDS011;64907;51.574;6.502;2024-02-15T10:51:48;7.38;;;3.63;;
76157;SDS011;64907;51.574;6.502;2024-02-15T10:54:15;5.57;;;3.22;;
76157;SDS011;64907;51.574;6.502;2024-02-15T10:56:45;4.72;;;3.47;;
76157;SDS011;64907;51.574;6.502;2024-02-15T11:01:59;5.25;;;3.05;;
76157;SDS011;64907;51.574;6.502;2024-02-15T11:04:25;3.78;;;2.97;;
76157;SDS011;64907;51.574;6.502;2024-02-15T11:09:46;5.82;;;3.08;;
76157;SDS011;64907;51.574;6.502;2024-02-15T11:12:11;5.88;;;2.78;;
76157;SDS011;64907;51.574;6.502;2024-02-15T11:14:37;6.95;;;3.40;;
76157;SDS011;64907;51.574;6.502;2024-02-15T11:17:02;3.08;;;2.70;;
76157;SDS011;64907;51.574;6.502;2024-02-15T11:22:11;4.93;;;2.83;;
76157;SDS011;64907;51.574;6.502;2024-02-15T11:24:37;6.25;;;2.97;;
76157;SDS011;64907;51.574;6.502;2024-02-15T11:27:10;5.00;;;2.80;;
76157;SDS011;64907;51.574;6.502;2024-02-15T11:32:40;4.85;;;2.55;;
76157;SDS011;64907;51.574;6.502;2024-02-15T11:35:18;8.25;;;2.88;;
76157;SDS011;64907;51.574;6.502;2024-02-15T11:40:27;7.72;;;2.70;;
76157;SDS011;64907;51.574;6.502;2024-02-15T11:42:57;8.32;;;2.80;;
76157;SDS011;64907;51.574;6.502;2024-02-15T11:45:26;6.35;;;2.83;;
76157;SDS011;64907;51.574;6.502;2024-02-15T11:47:57;3.95;;;2.42;;
76157;SDS011;64907;51.574;6.502;2024-02-15T11:50:24;6.10;;;2.83;;
76157;SDS011;64907;51.574;6.502;2024-02-15T11:52:50;4.38;;;2.35;;
76157;SDS011;64907;51.574;6.502;2024-02-15T11:55:19;3.47;;;3.05;;
76157;SDS011;64907;51.574;6.502;2024-02-15T11:57:55;5.63;;;2.50;;
76157;SDS011;64907;51.574;6.502;2024-02-15T12:00:28;3.08;;;2.22;;
76157;SDS011;64907;51.574;6.502;2024-02-15T12:03:13;2.50;;;1.98;;
76157;SDS011;64907;51.574;6.502;2024-02-15T12:05:59;3.75;;;2.40;;
76157;SDS011;64907;51.574;6.502;2024-02-15T12:08:47;4.70;;;2.30;;
76157;SDS011;64907;51.574;6.502;2024-02-15T12:11:31;3.75;;;2.25;;
76157;SDS011;64907;51.574;6.502;2024-02-15T12:14:35;3.25;;;2.20;;
76157;SDS011;64907;51.574;6.502;2024-02-15T12:17:26;3.45;;;2.13;;
76157;SDS011;64907;51.574;6.502;2024-02-15T12:20:10;5.60;;;2.00;;
76157;SDS011;64907;51.574;6.502;2024-02-15T12:22:40;4.30;;;2.28;;
76157;SDS011;64907;51.574;6.502;2024-02-15T12:25:07;4.00;;;2.25;;
76157;SDS011;64907;51.574;6.502;2024-02-15T12:27:39;3.60;;;2.15;;
76157;SDS011;64907;51.574;6.502;2024-02-15T12:32:40;4.47;;;2.10;;
76157;SDS011;64907;51.574;6.502;2024-02-15T12:35:09;6.78;;;2.20;;
76157;SDS011;64907;51.574;6.502;2024-02-15T12:37:37;6.72;;;2.17;;
76157;SDS011;64907;51.574;6.502;2024-02-15T12:40:19;3.50;;;2.25;;
76157;SDS011;64907;51.574;6.502;2024-02-15T12:42:45;5.90;;;1.90;;
76157;SDS011;64907;51.574;6.502;2024-02-15T12:45:30;4.57;;;2.00;;
76157;SDS011;64907;51.574;6.502;2024-02-15T12:47:55;2.75;;;2.10;;
76157;SDS011;64907;51.574;6.502;2024-02-15T12:50:27;3.92;;;2.28;;
76157;SDS011;64907;51.574;6.502;2024-02-15T12:52:53;3.83;;;2.00;;
76157;SDS011;64907;51.574;6.502;2024-02-15T12:55:36;5.90;;;2.00;;
76157;SDS011;64907;51.574;6.502;2024-02-15T12:58:05;3.97;;;1.83;;
76157;SDS011;64907;51.574;6.502;2024-02-15T13:00:49;2.78;;;1.90;;
76157;SDS011;64907;51.574;6.502;2024-02-15T13:03:15;4.28;;;2.30;;
76157;SDS011;64907;51.574;6.502;2024-02-15T13:05:41;2.35;;;1.60;;
76157;SDS011;64907;51.574;6.502;2024-02-15T13:08:18;3.47;;;1.90;;
76157;SDS011;64907;51.574;6.502;2024-02-15T13:10:52;5.65;;;2.10;;
76157;SDS011;64907;51.574;6.502;2024-02-15T13:13:18;3.80;;;2.10;;
76157;SDS011;64907;51.574;6.502;2024-02-15T13:15:53;4.82;;;1.77;;
76157;SDS011;64907;51.574;6.502;2024-02-15T13:23:20;1.45;;;1.35;;
76157;SDS011;64907;51.574;6.502;2024-02-15T13:25:50;2.97;;;1.80;;
76157;SDS011;64907;51.574;6.502;2024-02-15T13:28:25;4.35;;;1.60;;
76157;SDS011;64907;51.574;6.502;2024-02-15T13:30:50;2.47;;;1.73;;
76157;SDS011;64907;51.574;6.502;2024-02-15T13:33:19;2.20;;;1.73;;
76157;SDS011;64907;51.574;6.502;2024-02-15T13:38:15;2.38;;;1.85;;
76157;SDS011;64907;51.574;6.502;2024-02-15T13:40:47;3.38;;;2.20;;
76157;SDS011;64907;51.574;6.502;2024-02-15T13:43:14;2.67;;;1.83;;
76157;SDS011;64907;51.574;6.502;2024-02-15T13:45:42;1.85;;;1.63;;
76157;SDS011;64907;51.574;6.502;2024-02-15T13:48:07;1.83;;;1.65;;
76157;SDS011;64907;51.574;6.502;2024-02-15T13:50:34;3.80;;;1.65;;
76157;SDS011;64907;51.574;6.502;2024-02-15T13:52:59;4.43;;;1.90;;
76157;SDS011;64907;51.574;6.502;2024-02-15T13:55:25;2.03;;;1.48;;
76157;SDS011;64907;51.574;6.502;2024-02-15T13:57:53;1.40;;;1.30;;
76157;SDS011;64907;51.574;6.502;2024-02-15T14:00:20;2.70;;;1.83;;
76157;SDS011;64907;51.574;6.502;2024-02-15T14:02:56;4.25;;;1.40;;
76157;SDS011;64907;51.574;6.502;2024-02-15T14:05:23;2.97;;;1.80;;
76157;SDS011;64907;51.574;6.502;2024-02-15T14:13:00;4.43;;;1.90;;
76157;SDS011;64907;51.574;6.502;2024-02-15T14:15:37;7.95;;;2.08;;
76157;SDS011;64907;51.574;6.502;2024-02-15T14:18:10;3.88;;;1.60;;
76157;SDS011;64907;51.574;6.502;2024-02-15T14:20:36;1.50;;;1.38;;
76157;SDS011;64907;51.574;6.502;2024-02-15T14:25:32;4.68;;;1.77;;
76157;SDS011;64907;51.574;6.502;2024-02-15T14:28:09;1.98;;;1.70;;
76157;SDS011;64907;51.574;6.502;2024-02-15T14:33:37;2.58;;;1.50;;
76157;SDS011;64907;51.574;6.502;2024-02-15T14:41:02;1.55;;;1.45;;
76157;SDS011;64907;51.574;6.502;2024-02-15T14:43:31;3.22;;;1.77;;
76157;SDS011;64907;51.574;6.502;2024-02-15T14:45:56;1.88;;;1.50;;
76157;SDS011;64907;51.574;6.502;2024-02-15T14:48:37;2.28;;;1.80;;
76157;SDS011;64907;51.574;6.502;2024-02-15T14:51:05;3.72;;;1.80;;
76157;SDS011;64907;51.574;6.502;2024-02-15T14:53:33;2.72;;;1.60;;
76157;SDS011;64907;51.574;6.502;2024-02-15T14:55:58;2.53;;;1.98;;
76157;SDS011;64907;51.574;6.502;2024-02-15T14:58:24;1.48;;;1.38;;
76157;SDS011;64907;51.574;6.502;2024-02-15T15:03:19;1.98;;;1.65;;
76157;SDS011;64907;51.574;6.502;2024-02-15T15:05:45;1.83;;;1.70;;
76157;SDS011;64907;51.574;6.502;2024-02-15T15:08:28;4.00;;;2.08;;
76157;SDS011;64907;51.574;6.502;2024-02-15T15:11:12;3.13;;;1.80;;
76157;SDS011;64907;51.574;6.502;2024-02-15T15:13:56;10.90;;;2.85;;
76157;SDS011;64907;51.574;6.502;2024-02-15T15:16:21;5.13;;;1.88;;
76157;SDS011;64907;51.574;6.502;2024-02-15T15:18:48;5.72;;;1.73;;
76157;SDS011;64907;51.574;6.502;2024-02-15T15:21:17;3.25;;;1.85;;
76157;SDS011;64907;51.574;6.502;2024-02-15T15:23:42;9.07;;;2.40;;
76157;SDS011;64907;51.574;6.502;2024-02-15T15:26:08;5.85;;;1.90;;
76157;SDS011;64907;51.574;6.502;2024-02-15T15:28:36;2.40;;;1.95;;
76157;SDS011;64907;51.574;6.502;2024-02-15T15:31:01;5.05;;;2.00;;
76157;SDS011;64907;51.574;6.502;2024-02-15T15:33:27;2.65;;;1.75;;
76157;SDS011;64907;51.574;6.502;2024-02-15T15:35:52;3.50;;;1.70;;
76157;SDS011;64907;51.574;6.502;2024-02-15T15:38:20;3.08;;;2.00;;
76157;SDS011;64907;51.574;6.502;2024-02-15T15:40:46;3.65;;;2.38;;
76157;SDS011;64907;51.574;6.502;2024-02-15T15:43:11;3.13;;;2.10;;
76157;SDS011;64907;51.574;6.502;2024-02-15T15:48:16;5.65;;;2.55;;
76157;SDS011;64907;51.574;6.502;2024-02-15T15:50:51;4.88;;;1.95;;
76157;SDS011;64907;51.574;6.502;2024-02-15T15:53:16;5.40;;;2.20;;
76157;SDS011;64907;51.574;6.502;2024-02-15T15:55:41;6.05;;;2.30;;
76157;SDS011;64907;51.574;6.502;2024-02-15T15:58:07;4.38;;;2.17;;
76157;SDS011;64907;51.574;6.502;2024-02-15T16:00:35;3.35;;;2.10;;
76157;SDS011;64907;51.574;6.502;2024-02-15T16:05:53;5.00;;;2.25;;
76157;SDS011;64907;51.574;6.502;2024-02-15T16:08:37;2.33;;;2.00;;
76157;SDS011;64907;51.574;6.502;2024-02-15T16:14:00;4.05;;;1.90;;
76157;SDS011;64907;51.574;6.502;2024-02-15T16:16:39;3.70;;;2.00;;
76157;SDS011;64907;51.574;6.502;2024-02-15T16:19:08;3.90;;;2.05;;
76157;SDS011;64907;51.574;6.502;2024-02-15T16:21:34;3.35;;;2.45;;
76157;SDS011;64907;51.574;6.502;2024-02-15T16:26:44;4.88;;;2.25;;
76157;SDS011;64907;51.574;6.502;2024-02-15T16:29:09;4.47;;;2.10;;
76157;SDS011;64907;51.574;6.502;2024-02-15T16:31:44;3.60;;;2.42;;
76157;SDS011;64907;51.574;6.502;2024-02-15T16:34:11;3.13;;;2.00;;
76157;SDS011;64907;51.574;6.502;2024-02-15T16:36:37;4.70;;;2.10;;
76157;SDS011;64907;51.574;6.502;2024-02-15T16:39:04;2.45;;;1.95;;
76157;SDS011;64907;51.574;6.502;2024-02-15T16:41:31;2.92;;;1.88;;